Map

Track Data

SID SEASON NUMBER BASIN SUBBASIN NAME ISO_TIME NATURE LAT LON WMO_WIND WMO_PRES WMO_AGENCY TRACK_TYPE DIST2LAND LANDFALL IFLAG USA_AGENCY USA_ATCF_ID USA_LAT USA_LON USA_RECORD USA_STATUS USA_WIND USA_PRES USA_SSHS USA_R34_NE USA_R34_SE USA_R34_SW USA_R34_NW USA_R50_NE USA_R50_SE USA_R50_SW USA_R50_NW USA_R64_NE USA_R64_SE USA_R64_SW USA_R64_NW USA_POCI USA_ROCI USA_RMW USA_EYE TOKYO_LAT TOKYO_LON TOKYO_GRADE TOKYO_WIND TOKYO_PRES TOKYO_R50_DIR TOKYO_R50_LONG TOKYO_R50_SHORT TOKYO_R30_DIR TOKYO_R30_LONG TOKYO_R30_SHORT TOKYO_LAND CMA_LAT CMA_LON CMA_CAT CMA_WIND CMA_PRES HKO_LAT HKO_LON HKO_CAT HKO_WIND HKO_PRES NEWDELHI_LAT NEWDELHI_LON NEWDELHI_GRADE NEWDELHI_WIND NEWDELHI_PRES NEWDELHI_CI NEWDELHI_DP NEWDELHI_POCI REUNION_LAT REUNION_LON REUNION_TYPE REUNION_WIND REUNION_PRES REUNION_TNUM REUNION_CI REUNION_RMW REUNION_R34_NE REUNION_R34_SE REUNION_R34_SW REUNION_R34_NW REUNION_R50_NE REUNION_R50_SE REUNION_R50_SW REUNION_R50_NW REUNION_R64_NE REUNION_R64_SE REUNION_R64_SW REUNION_R64_NW BOM_LAT BOM_LON BOM_TYPE BOM_WIND BOM_PRES BOM_TNUM BOM_CI BOM_RMW BOM_R34_NE BOM_R34_SE BOM_R34_SW BOM_R34_NW BOM_R50_NE BOM_R50_SE BOM_R50_SW BOM_R50_NW BOM_R64_NE BOM_R64_SE BOM_R64_SW BOM_R64_NW BOM_ROCI BOM_POCI BOM_EYE BOM_POS_METHOD BOM_PRES_METHOD NADI_LAT NADI_LON NADI_CAT NADI_WIND NADI_PRES WELLINGTON_LAT WELLINGTON_LON WELLINGTON_WIND WELLINGTON_PRES DS824_LAT DS824_LON DS824_STAGE DS824_WIND DS824_PRES TD9636_LAT TD9636_LON TD9636_STAGE TD9636_WIND TD9636_PRES TD9635_LAT TD9635_LON TD9635_WIND TD9635_PRES TD9635_ROCI NEUMANN_LAT NEUMANN_LON NEUMANN_CLASS NEUMANN_WIND NEUMANN_PRES MLC_LAT MLC_LON MLC_CLASS MLC_WIND MLC_PRES USA_GUST BOM_GUST BOM_GUST_PER REUNION_GUST REUNION_GUST_PER USA_SEAHGT USA_SEARAD_NE USA_SEARAD_SE USA_SEARAD_SW USA_SEARAD_NW STORM_SPEED STORM_DIR
1888236N17127 1888 40 WP MM NOT_NAMED 1888-08-22 16:00:00 NR 16.7000 127.000 main 418 418 __________O___ -1 16.7000 127.000 7 5 325
1888236N17127 1888 40 WP MM NOT_NAMED 1888-08-22 18:00:00 NR 16.8215 126.907 main 419 419 __________P___ -1 16.8215 126.907 7 5 323
1888236N17127 1888 40 WP MM NOT_NAMED 1888-08-22 21:00:00 NR 17.0081 126.764 main 429 423 __________P___ -1 17.0081 126.764 7 5 324
1888236N17127 1888 40 WP MM NOT_NAMED 1888-08-23 00:00:00 NR 17.2062 126.615 main 434 426 __________P___ -1 17.2062 126.615 7 5 325
1888236N17127 1888 40 WP MM NOT_NAMED 1888-08-23 03:00:00 NR 17.4226 126.456 main 427 416 __________P___ -1 17.4226 126.456 7 5 325
1888236N17127 1888 40 WP MM NOT_NAMED 1888-08-23 04:00:00 NR 17.5000 126.400 main 418 409 __________O___ -1 17.5000 126.400 7 6 326
1888236N17127 1888 40 WP MM NOT_NAMED 1888-08-23 06:00:00 NR 17.6641 126.284 main 410 395 __________P___ -1 17.6641 126.284 7 6 327
1888236N17127 1888 40 WP MM NOT_NAMED 1888-08-23 09:00:00 NR 17.9351 126.103 main 395 380 __________P___ -1 17.9351 126.103 7 7 329
1888236N17127 1888 40 WP MM NOT_NAMED 1888-08-23 12:00:00 NR 18.2388 125.923 main 380 369 __________P___ -1 18.2388 125.923 7 7 333
1888236N17127 1888 40 WP MM NOT_NAMED 1888-08-23 15:00:00 NR 18.5783 125.753 main 369 359 __________P___ -1 18.5783 125.753 7 8 335
1888236N17127 1888 40 WP MM NOT_NAMED 1888-08-23 16:00:00 NR 18.7000 125.700 main 360 352 __________O___ -1 18.7000 125.700 7 8 341
1888236N17127 1888 40 WP MM NOT_NAMED 1888-08-23 18:00:00 NR 18.9704 125.608 main 354 348 __________P___ -1 18.9704 125.608 7 9 344
1888236N17127 1888 40 WP MM NOT_NAMED 1888-08-23 21:00:00 NR 19.4081 125.482 main 354 348 __________P___ -1 19.4081 125.482 7 9 345
1888236N17127 1888 40 WP MM NOT_NAMED 1888-08-24 00:00:00 NR 19.8535 125.364 main 366 357 __________P___ -1 19.8535 125.364 7 9 346
1888236N17127 1888 40 WP MM NOT_NAMED 1888-08-24 03:00:00 NR 20.2723 125.243 main 371 371 __________P___ -1 20.2723 125.243 7 9 344
1888236N17127 1888 40 WP MM NOT_NAMED 1888-08-24 04:00:00 NR 20.4000 125.200 main 377 375 __________O___ -1 20.4000 125.200 7 7 339
1888236N17127 1888 40 WP MM NOT_NAMED 1888-08-24 06:00:00 NR 20.6097 125.100 main 382 382 __________P___ -1 20.6097 125.100 7 7 334
1888236N17127 1888 40 WP MM NOT_NAMED 1888-08-24 09:00:00 NR 20.8863 124.944 main 390 390 __________P___ -1 20.8863 124.944 7 6 331
1888236N17127 1888 40 WP MM NOT_NAMED 1888-08-24 12:00:00 NR 21.1422 124.789 main 399 380 __________P___ -1 21.1422 124.789 7 6 332
1888236N17127 1888 40 WP MM NOT_NAMED 1888-08-24 15:00:00 NR 21.4057 124.644 main 380 374 __________P___ -1 21.4057 124.644 7 6 334
1888236N17127 1888 40 WP MM NOT_NAMED 1888-08-24 16:00:00 NR 21.5000 124.600 main 374 354 __________O___ -1 21.5000 124.600 7 7 339
1888236N17127 1888 40 WP MM NOT_NAMED 1888-08-24 18:00:00 NR 21.7162 124.517 main 354 327 __________P___ -1 21.7162 124.517 7 7 342
1888236N17127 1888 40 WP MM NOT_NAMED 1888-08-24 21:00:00 NR 22.0594 124.404 main 327 307 __________P___ -1 22.0594 124.404 7 7 344
1888236N17127 1888 40 WP MM NOT_NAMED 1888-08-25 00:00:00 NR 22.4170 124.307 main 307 288 __________P___ -1 22.4170 124.307 7 7 347
1888236N17127 1888 40 WP MM NOT_NAMED 1888-08-25 03:00:00 NR 22.7796 124.224 main 288 287 __________P___ -1 22.7796 124.224 7 7 349
1888236N17127 1888 40 WP MM NOT_NAMED 1888-08-25 04:00:00 NR 22.9000 124.200 main 287 272 __________O___ -1 22.9000 124.200 7 7 348
1888236N17127 1888 40 WP MM NOT_NAMED 1888-08-25 06:00:00 NR 23.1359 124.142 main 272 249 __________P___ -1 23.1359 124.142 7 7 349
1888236N17127 1888 40 WP MM NOT_NAMED 1888-08-25 09:00:00 NR 23.4899 124.068 main 249 226 __________P___ -1 23.4899 124.068 7 7 351
1888236N17127 1888 40 WP MM NOT_NAMED 1888-08-25 12:00:00 NR 23.8412 124.017 main 226 215 __________P___ -1 23.8412 124.017 7 7 355
1888236N17127 1888 40 WP MM NOT_NAMED 1888-08-25 15:00:00 NR 24.1867 123.998 main 215 213 __________P___ -1 24.1867 123.998 7 7 0
1888236N17127 1888 40 WP MM NOT_NAMED 1888-08-25 16:00:00 NR 24.3000 124.000 main 213 209 __________O___ -1 24.3000 124.000 7 7 0
1888236N17127 1888 40 WP MM NOT_NAMED 1888-08-25 18:00:00 NR 24.5276 124.016 main 209 202 __________P___ -1 24.5276 124.016 7 7 7
1888236N17127 1888 40 WP MM NOT_NAMED 1888-08-25 21:00:00 NR 24.8628 124.072 main 211 211 __________P___ -1 24.8628 124.072 7 7 10
1888236N17127 1888 40 WP MM NOT_NAMED 1888-08-26 00:00:00 NR 25.1879 124.157 main 222 222 __________P___ -1 25.1879 124.157 7 7 15
1888236N17127 1888 40 WP MM NOT_NAMED 1888-08-26 03:00:00 NR 25.4996 124.262 main 237 237 __________P___ -1 25.4996 124.262 7 7 18
1888236N17127 1888 40 WP MM NOT_NAMED 1888-08-26 04:00:00 NR 25.6000 124.300 main 240 240 __________O___ -1 25.6000 124.300 7 6 17
1888236N17127 1888 40 WP MM NOT_NAMED 1888-08-26 06:00:00 NR 25.7973 124.359 main 256 256 __________P___ -1 25.7973 124.359 7 6 17
1888236N17127 1888 40 WP MM NOT_NAMED 1888-08-26 09:00:00 NR 26.0807 124.460 main 279 279 __________P___ -1 26.0807 124.460 7 6 20
1888236N17127 1888 40 WP MM NOT_NAMED 1888-08-26 12:00:00 NR 26.3518 124.583 main 303 303 __________P___ -1 26.3518 124.583 7 6 25
1888236N17127 1888 40 WP MM NOT_NAMED 1888-08-26 15:00:00 NR 26.6141 124.739 main 323 323 __________P___ -1 26.6141 124.739 7 6 29
1888236N17127 1888 40 WP MM NOT_NAMED 1888-08-26 16:00:00 NR 26.7000 124.800 main 338 338 __________O___ -1 26.7000 124.800 7 6 32
1888236N17127 1888 40 WP MM NOT_NAMED 1888-08-26 18:00:00 NR 26.8855 124.933 main 359 359 __________P___ -1 26.8855 124.933 7 7 35
1888236N17127 1888 40 WP MM NOT_NAMED 1888-08-26 21:00:00 NR 27.1577 125.163 main 374 374 __________P___ -1 27.1577 125.163 7 7 40
1888236N17127 1888 40 WP MM NOT_NAMED 1888-08-27 00:00:00 NR 27.4115 125.423 main 386 386 __________P___ -1 27.4115 125.423 7 7 45
1888236N17127 1888 40 WP MM NOT_NAMED 1888-08-27 03:00:00 NR 27.6346 125.704 main 403 398 __________P___ -1 27.6346 125.704 7 7 49
1888236N17127 1888 40 WP MM NOT_NAMED 1888-08-27 04:00:00 NR 27.7000 125.800 main 407 407 __________O___ -1 27.7000 125.800 7 6 54
1888236N17127 1888 40 WP MM NOT_NAMED 1888-08-27 06:00:00 NR 27.8144 125.984 main 420 420 __________P___ -1 27.8144 125.984 7 6 59
1888236N17127 1888 40 WP MM NOT_NAMED 1888-08-27 09:00:00 NR 27.9545 126.272 main 440 440 __________P___ -1 27.9545 126.272 7 6 64
1888236N17127 1888 40 WP MM NOT_NAMED 1888-08-27 12:00:00 NR 28.0681 126.574 main 464 461 __________P___ -1 28.0681 126.574 7 6 69
1888236N17127 1888 40 WP MM NOT_NAMED 1888-08-27 15:00:00 NR 28.1677 126.891 main 461 455 __________P___ -1 28.1677 126.891 7 6 71
1888236N17127 1888 40 WP MM NOT_NAMED 1888-08-27 16:00:00 NR 28.2000 127.000 main 455 434 __________O___ -1 28.2000 127.000 7 6 70
1888236N17127 1888 40 WP MM NOT_NAMED 1888-08-27 18:00:00 NR 28.2750 127.225 main 434 400 __________P___ -1 28.2750 127.225 7 6 70
1888236N17127 1888 40 WP MM NOT_NAMED 1888-08-27 21:00:00 NR 28.3812 127.574 main 400 373 __________P___ -1 28.3812 127.574 7 7 72
1888236N17127 1888 40 WP MM NOT_NAMED 1888-08-28 00:00:00 NR 28.4800 127.930 main 373 342 __________P___ -1 28.4800 127.930 7 7 73
1888236N17127 1888 40 WP MM NOT_NAMED 1888-08-28 03:00:00 NR 28.5712 128.284 main 342 337 __________P___ -1 28.5712 128.284 7 6 74
1888236N17127 1888 40 WP MM NOT_NAMED 1888-08-28 04:00:00 NR 28.6000 128.400 main 337 328 __________O___ -1 28.6000 128.400 7 6 76
1888236N17127 1888 40 WP MM NOT_NAMED 1888-08-28 06:00:00 NR 28.6476 128.623 main 328 301 __________P___ -1 28.6476 128.623 7 6 77
1888236N17127 1888 40 WP MM NOT_NAMED 1888-08-28 09:00:00 NR 28.7127 128.950 main 301 280 __________P___ -1 28.7127 128.950 7 6 77
1888236N17127 1888 40 WP MM NOT_NAMED 1888-08-28 12:00:00 NR 28.7814 129.273 main 280 257 __________P___ -1 28.7814 129.273 7 6 75
1888236N17127 1888 40 WP MM NOT_NAMED 1888-08-28 15:00:00 NR 28.8661 129.593 main 257 253 __________P___ -1 28.8661 129.593 7 6 72
1888236N17127 1888 40 WP MM NOT_NAMED 1888-08-28 16:00:00 NR 28.9000 129.700 main 253 236 __________O___ -1 28.9000 129.700 7 6 68
1888236N17127 1888 40 WP MM NOT_NAMED 1888-08-28 18:00:00 NR 28.9782 129.914 main 236 217 __________P___ -1 28.9782 129.914 7 6 65
1888236N17127 1888 40 WP MM NOT_NAMED 1888-08-28 21:00:00 NR 29.1173 130.238 main 217 189 __________P___ -1 29.1173 130.238 7 6 62
1888236N17127 1888 40 WP MM NOT_NAMED 1888-08-29 00:00:00 NR 29.2750 130.563 main 189 178 __________P___ -1 29.2750 130.563 7 7 60
1888236N17127 1888 40 WP MM NOT_NAMED 1888-08-29 03:00:00 NR 29.4431 130.891 main 179 168 __________P___ -1 29.4431 130.891 7 7 59
1888236N17127 1888 40 WP MM NOT_NAMED 1888-08-29 04:00:00 NR 29.5000 131.000 main 169 __________O___ -1 29.5000 131.000 7 7 59

Digital Typhoon Data and Search

About IBTrACS Database

This database is a web-friendly format of International Best Track Archive for Climate Stewardship (IBTrACS), a global best track data archive curated by NOAA dating back to 1842.

Updated: 2021-12-06